sensor_id;sensor_type;location;lat;lon;timestamp;pressure;altitude;pressure_sealevel;temperature
64296;BMP280;51082;38.236;15.432;2022-09-23T00:00:57;101368.38;;;20.61
64296;BMP280;51082;38.236;15.432;2022-09-23T00:02:00;101366.34;;;20.63
64296;BMP280;51082;38.236;15.432;2022-09-23T00:03:02;101362.09;;;20.62
64296;BMP280;51082;38.236;15.432;2022-09-23T00:04:05;101367.59;;;20.61
64296;BMP280;51082;38.236;15.432;2022-09-23T00:05:08;101360.69;;;20.60
64296;BMP280;51082;38.236;15.432;2022-09-23T00:06:12;101356.69;;;20.57
64296;BMP280;51082;38.236;15.432;2022-09-23T00:07:15;101362.53;;;20.59
64296;BMP280;51082;38.236;15.432;2022-09-23T00:08:18;101363.59;;;20.58
64296;BMP280;51082;38.236;15.432;2022-09-23T00:09:21;101361.97;;;20.57
64296;BMP280;51082;38.236;15.432;2022-09-23T00:10:26;101360.97;;;20.58
64296;BMP280;51082;38.236;15.432;2022-09-23T00:11:28;101366.47;;;20.57
64296;BMP280;51082;38.236;15.432;2022-09-23T00:12:30;101357.19;;;20.54
64296;BMP280;51082;38.236;15.432;2022-09-23T00:13:33;101358.25;;;20.53
64296;BMP280;51082;38.236;15.432;2022-09-23T00:14:37;101356.63;;;20.52
64296;BMP280;51082;38.236;15.432;2022-09-23T00:15:39;101356.63;;;20.52
64296;BMP280;51082;38.236;15.432;2022-09-23T00:16:41;101359.78;;;20.49
64296;BMP280;51082;38.236;15.432;2022-09-23T00:17:44;101354.69;;;20.48
64296;BMP280;51082;38.236;15.432;2022-09-23T00:18:47;101360.25;;;20.46
64296;BMP280;51082;38.236;15.432;2022-09-23T00:19:50;101356.31;;;20.49
64296;BMP280;51082;38.236;15.432;2022-09-23T00:20:54;101347.34;;;20.50
64296;BMP280;51082;38.236;15.432;2022-09-23T00:21:56;101356.53;;;20.47
64296;BMP280;51082;38.236;15.432;2022-09-23T00:22:58;101354.41;;;20.44
64296;BMP280;51082;38.236;15.432;2022-09-23T00:24:00;101356.50;;;20.42
64296;BMP280;51082;38.236;15.432;2022-09-23T00:25:06;101356.50;;;20.42
64296;BMP280;51082;38.236;15.432;2022-09-23T00:26:10;101350.41;;;20.42
64296;BMP280;51082;38.236;15.432;2022-09-23T00:27:14;101347.47;;;20.43
64296;BMP280;51082;38.236;15.432;2022-09-23T00:28:16;101347.47;;;20.43
64296;BMP280;51082;38.236;15.432;2022-09-23T00:29:18;101348.06;;;20.45
64296;BMP280;51082;38.236;15.432;2022-09-23T00:30:20;101343.81;;;20.44
64296;BMP280;51082;38.236;15.432;2022-09-23T00:31:25;101340.34;;;20.44
64296;BMP280;51082;38.236;15.432;2022-09-23T00:32:27;101338.41;;;20.39
64296;BMP280;51082;38.236;15.432;2022-09-23T00:33:30;101349.00;;;20.39
64296;BMP280;51082;38.236;15.432;2022-09-23T00:34:31;101349.84;;;20.39
64296;BMP280;51082;38.236;15.432;2022-09-23T00:35:34;101341.91;;;20.39
64296;BMP280;51082;38.236;15.432;2022-09-23T00:36:36;101341.06;;;20.39
64296;BMP280;51082;38.236;15.432;2022-09-23T00:37:38;101349.28;;;20.37
64296;BMP280;51082;38.236;15.432;2022-09-23T00:38:40;101346.34;;;20.39
64296;BMP280;51082;38.236;15.432;2022-09-23T00:39:43;101337.41;;;20.40
64296;BMP280;51082;38.236;15.432;2022-09-23T00:40:47;101344.53;;;20.39
64296;BMP280;51082;38.236;15.432;2022-09-23T00:41:49;101345.34;;;20.40
64296;BMP280;51082;38.236;15.432;2022-09-23T00:42:51;101350.41;;;20.42
64296;BMP280;51082;38.236;15.432;2022-09-23T00:43:55;101341.91;;;20.39
64296;BMP280;51082;38.236;15.432;2022-09-23T00:44:59;101342.91;;;20.38
64296;BMP280;51082;38.236;15.432;2022-09-23T00:46:02;101343.19;;;20.37
64296;BMP280;51082;38.236;15.432;2022-09-23T00:47:06;101344.75;;;20.38
64296;BMP280;51082;38.236;15.432;2022-09-23T00:48:14;101341.06;;;20.39
64296;BMP280;51082;38.236;15.432;2022-09-23T00:49:20;101342.09;;;20.38
64296;BMP280;51082;38.236;15.432;2022-09-23T00:50:28;101345.34;;;20.40
64296;BMP280;51082;38.236;15.432;2022-09-23T00:51:33;101339.81;;;20.42
64296;BMP280;51082;38.236;15.432;2022-09-23T00:52:38;101345.09;;;20.42
64296;BMP280;51082;38.236;15.432;2022-09-23T00:53:40;101339.47;;;20.38
64296;BMP280;51082;38.236;15.432;2022-09-23T00:54:44;101341.91;;;20.39
64296;BMP280;51082;38.236;15.432;2022-09-23T00:55:49;101341.91;;;20.39
64296;BMP280;51082;38.236;15.432;2022-09-23T00:56:54;101336.38;;;20.41
64296;BMP280;51082;38.236;15.432;2022-09-23T00:57:58;101340.84;;;20.41
64296;BMP280;51082;38.236;15.432;2022-09-23T00:59:02;101334.19;;;20.38
64296;BMP280;51082;38.236;15.432;2022-09-23T01:00:05;101335.25;;;20.37
64296;BMP280;51082;38.236;15.432;2022-09-23T01:01:09;101340.63;;;20.42
64296;BMP280;51082;38.236;15.432;2022-09-23T01:02:13;101339.00;;;20.41
64296;BMP280;51082;38.236;15.432;2022-09-23T01:03:16;101332.13;;;20.40
64296;BMP280;51082;38.236;15.432;2022-09-23T01:04:19;101336.63;;;20.39
64296;BMP280;51082;38.236;15.432;2022-09-23T01:05:23;101339.47;;;20.38
64296;BMP280;51082;38.236;15.432;2022-09-23T01:06:25;101341.34;;;20.37
64296;BMP280;51082;38.236;15.432;2022-09-23T01:07:29;101346.34;;;20.39
64296;BMP280;51082;38.236;15.432;2022-09-23T01:08:31;101336.63;;;20.39
64296;BMP280;51082;38.236;15.432;2022-09-23T01:09:34;101333.97;;;20.39
64296;BMP280;51082;38.236;15.432;2022-09-23T01:10:44;101330.28;;;20.41
64296;BMP280;51082;38.236;15.432;2022-09-23T01:11:58;101336.09;;;20.43
64296;BMP280;51082;38.236;15.432;2022-09-23T01:13:09;101328.44;;;20.41
64296;BMP280;51082;38.236;15.432;2022-09-23T01:14:30;101327.94;;;20.44
64296;BMP280;51082;38.236;15.432;2022-09-23T01:15:43;101327.94;;;20.44
64296;BMP280;51082;38.236;15.432;2022-09-23T01:16:48;101327.22;;;20.49
64296;BMP280;51082;38.236;15.432;2022-09-23T01:18:00;101328.56;;;20.51
64296;BMP280;51082;38.236;15.432;2022-09-23T01:19:04;101333.03;;;20.51
64296;BMP280;51082;38.236;15.432;2022-09-23T01:20:35;101326.50;;;20.53
64296;BMP280;51082;38.236;15.432;2022-09-23T01:21:48;101321.22;;;20.53
64296;BMP280;51082;38.236;15.432;2022-09-23T01:23:08;101325.66;;;20.53
64296;BMP280;51082;38.236;15.432;2022-09-23T01:24:41;101325.97;;;20.56
64296;BMP280;51082;38.236;15.432;2022-09-23T01:26:05;101333.38;;;20.54
64296;BMP280;51082;38.236;15.432;2022-09-23T01:27:25;101331.06;;;20.58
64296;BMP280;51082;38.236;15.432;2022-09-23T01:28:55;101330.78;;;20.59
64296;BMP280;51082;38.236;15.432;2022-09-23T01:31:54;101321.34;;;20.63
64296;BMP280;51082;38.236;15.432;2022-09-23T01:33:03;101326.66;;;20.63
64296;BMP280;51082;38.236;15.432;2022-09-23T01:34:11;101319.75;;;20.62
64296;BMP280;51082;38.236;15.432;2022-09-23T01:35:21;101320.88;;;20.66
64296;BMP280;51082;38.236;15.432;2022-09-23T01:36:28;101315.56;;;20.66
64296;BMP280;51082;38.236;15.432;2022-09-23T01:37:36;101320.88;;;20.66
64296;BMP280;51082;38.236;15.432;2022-09-23T01:38:43;101310.28;;;20.66
64296;BMP280;51082;38.236;15.432;2022-09-23T01:39:52;101306.59;;;20.67
64296;BMP280;51082;38.236;15.432;2022-09-23T01:41:00;101303.94;;;20.67
64296;BMP280;51082;38.236;15.432;2022-09-23T01:42:10;101310.81;;;20.68
64296;BMP280;51082;38.236;15.432;2022-09-23T01:43:18;101308.44;;;20.67
64296;BMP280;51082;38.236;15.432;2022-09-23T01:44:28;101302.88;;;20.68
64296;BMP280;51082;38.236;15.432;2022-09-23T01:45:36;101297.88;;;20.72
64296;BMP280;51082;38.236;15.432;2022-09-23T01:46:42;101301.91;;;20.75
64296;BMP280;51082;38.236;15.432;2022-09-23T01:47:54;101301.91;;;20.75
64296;BMP280;51082;38.236;15.432;2022-09-23T01:49:03;101300.59;;;20.77
64296;BMP280;51082;38.236;15.432;2022-09-23T01:50:11;101300.38;;;20.79
64296;BMP280;51082;38.236;15.432;2022-09-23T01:51:32;101313.03;;;20.77
64296;BMP280;51082;38.236;15.432;2022-09-23T01:52:41;101301.91;;;20.75
64296;BMP280;51082;38.236;15.432;2022-09-23T01:53:46;101301.66;;;20.76
64296;BMP280;51082;38.236;15.432;2022-09-23T01:54:55;101299.50;;;20.73
64296;BMP280;51082;38.236;15.432;2022-09-23T01:56:02;101296.13;;;20.78
64296;BMP280;51082;38.236;15.432;2022-09-23T01:57:09;101298.75;;;20.78
64296;BMP280;51082;38.236;15.432;2022-09-23T01:58:16;101296.66;;;20.80
64296;BMP280;51082;38.236;15.432;2022-09-23T01:59:23;101295.38;;;20.82
64296;BMP280;51082;38.236;15.432;2022-09-23T02:00:29;101289.84;;;20.84
64296;BMP280;51082;38.236;15.432;2022-09-23T02:01:36;101291.94;;;20.82
64296;BMP280;51082;38.236;15.432;2022-09-23T02:02:44;101288.72;;;20.80
64296;BMP280;51082;38.236;15.432;2022-09-23T02:03:55;101297.22;;;20.82
64296;BMP280;51082;38.236;15.432;2022-09-23T02:05:04;101289.03;;;20.83
64296;BMP280;51082;38.236;15.432;2022-09-23T02:06:10;101289.84;;;20.84
64296;BMP280;51082;38.236;15.432;2022-09-23T02:07:19;101297.22;;;20.82
64296;BMP280;51082;38.236;15.432;2022-09-23T02:08:25;101290.34;;;20.81
64296;BMP280;51082;38.236;15.432;2022-09-23T02:09:39;101298.03;;;20.82
64296;BMP280;51082;38.236;15.432;2022-09-23T02:10:45;101298.28;;;20.81
64296;BMP280;51082;38.236;15.432;2022-09-23T02:11:50;101296.66;;;20.80
64296;BMP280;51082;38.236;15.432;2022-09-23T02:13:01;101297.97;;;20.77
64296;BMP280;51082;38.236;15.432;2022-09-23T02:14:09;101300.28;;;20.73
64296;BMP280;51082;38.236;15.432;2022-09-23T02:15:17;101295.81;;;20.74
64296;BMP280;51082;38.236;15.432;2022-09-23T02:16:25;101297.66;;;20.73
64296;BMP280;51082;38.236;15.432;2022-09-23T02:17:32;101293.41;;;20.72
64296;BMP280;51082;38.236;15.432;2022-09-23T02:18:40;101296.53;;;20.69
64296;BMP280;51082;38.236;15.432;2022-09-23T02:19:47;101290.50;;;20.74
64296;BMP280;51082;38.236;15.432;2022-09-23T02:20:55;101297.88;;;20.72
64296;BMP280;51082;38.236;15.432;2022-09-23T02:22:02;101288.59;;;20.69
64296;BMP280;51082;38.236;15.432;2022-09-23T02:23:09;101294.69;;;20.70
64296;BMP280;51082;38.236;15.432;2022-09-23T02:24:14;101290.19;;;20.70
64296;BMP280;51082;38.236;15.432;2022-09-23T02:25:21;101285.44;;;20.67
64296;BMP280;51082;38.236;15.432;2022-09-23T02:26:29;101281.72;;;20.68
64296;BMP280;51082;38.236;15.432;2022-09-23T02:27:39;101284.63;;;20.67
64296;BMP280;51082;38.236;15.432;2022-09-23T02:28:50;101275.78;;;20.61
64296;BMP280;51082;38.236;15.432;2022-09-23T02:30:02;101272.34;;;20.61
64296;BMP280;51082;38.236;15.432;2022-09-23T02:31:12;101271.31;;;20.62
64296;BMP280;51082;38.236;15.432;2022-09-23T02:32:20;101274.50;;;20.64
64296;BMP280;51082;38.236;15.432;2022-09-23T02:33:29;101274.78;;;20.62
64296;BMP280;51082;38.236;15.432;2022-09-23T02:34:43;101281.66;;;20.63
64296;BMP280;51082;38.236;15.432;2022-09-23T02:35:50;101276.91;;;20.65
64296;BMP280;51082;38.236;15.432;2022-09-23T02:37:02;101282.72;;;20.62
64296;BMP280;51082;38.236;15.432;2022-09-23T02:38:15;101272.94;;;20.63
64296;BMP280;51082;38.236;15.432;2022-09-23T02:39:23;101281.59;;;20.58
64296;BMP280;51082;38.236;15.432;2022-09-23T02:40:31;101288.22;;;20.61
64296;BMP280;51082;38.236;15.432;2022-09-23T02:41:44;101280.28;;;20.61
64296;BMP280;51082;38.236;15.432;2022-09-23T02:42:56;101278.94;;;20.58
64296;BMP280;51082;38.236;15.432;2022-09-23T02:44:06;101280.06;;;20.62
64296;BMP280;51082;38.236;15.432;2022-09-23T02:45:08;101272.03;;;20.57
64296;BMP280;51082;38.236;15.432;2022-09-23T02:46:11;101279.97;;;20.57
64296;BMP280;51082;38.236;15.432;2022-09-23T02:47:13;101278.94;;;20.58
64296;BMP280;51082;38.236;15.432;2022-09-23T02:48:19;101282.34;;;20.54
64296;BMP280;51082;38.236;15.432;2022-09-23T02:49:22;101294.75;;;20.53
64296;BMP280;51082;38.236;15.432;2022-09-23T02:50:25;101296.00;;;20.51
64296;BMP280;51082;38.236;15.432;2022-09-23T02:51:29;101303.69;;;20.52
64296;BMP280;51082;38.236;15.432;2022-09-23T02:52:38;101296.56;;;20.53
64296;BMP280;51082;38.236;15.432;2022-09-23T02:53:40;101293.13;;;20.52
64296;BMP280;51082;38.236;15.432;2022-09-23T02:54:43;101293.66;;;20.49
64296;BMP280;51082;38.236;15.432;2022-09-23T02:55:44;101304.22;;;20.49
64296;BMP280;51082;38.236;15.432;2022-09-23T02:56:47;101304.50;;;20.53
64296;BMP280;51082;38.236;15.432;2022-09-23T02:57:49;101301.13;;;20.57
64296;BMP280;51082;38.236;15.432;2022-09-23T02:58:54;101307.97;;;20.53
64296;BMP280;51082;38.236;15.432;2022-09-23T02:59:55;101298.47;;;20.57
64296;BMP280;51082;38.236;15.432;2022-09-23T03:01:03;101302.25;;;20.61
64296;BMP280;51082;38.236;15.432;2022-09-23T03:02:14;101305.47;;;20.63
64296;BMP280;51082;38.236;15.432;2022-09-23T03:03:35;101307.72;;;20.71
64296;BMP280;51082;38.236;15.432;2022-09-23T03:04:46;101297.88;;;20.72
64296;BMP280;51082;38.236;15.432;2022-09-23T03:05:55;101299.50;;;20.73
64296;BMP280;51082;38.236;15.432;2022-09-23T03:07:02;101295.50;;;20.70
64296;BMP280;51082;38.236;15.432;2022-09-23T03:08:22;101303.66;;;20.69
64296;BMP280;51082;38.236;15.432;2022-09-23T03:09:32;101305.53;;;20.68
64296;BMP280;51082;38.236;15.432;2022-09-23T03:10:45;101302.88;;;20.68
64296;BMP280;51082;38.236;15.432;2022-09-23T03:11:56;101308.16;;;20.68
64296;BMP280;51082;38.236;15.432;2022-09-23T03:13:08;101304.47;;;20.69
64296;BMP280;51082;38.236;15.432;2022-09-23T03:14:18;101301.91;;;20.75
64296;BMP280;51082;38.236;15.432;2022-09-23T03:15:32;101305.72;;;20.84
64296;BMP280;51082;38.236;15.432;2022-09-23T03:16:41;101307.94;;;20.92
64296;BMP280;51082;38.236;15.432;2022-09-23T03:17:51;101321.72;;;20.94
64296;BMP280;51082;38.236;15.432;2022-09-23T03:19:03;101310.59;;;20.92
64296;BMP280;51082;38.236;15.432;2022-09-23T03:20:19;101314.22;;;20.86
64296;BMP280;51082;38.236;15.432;2022-09-23T03:21:28;101313.25;;;20.92
64296;BMP280;51082;38.236;15.432;2022-09-23T03:22:38;101320.69;;;20.95
64296;BMP280;51082;38.236;15.432;2022-09-23T03:23:44;101318.84;;;20.95
64296;BMP280;51082;38.236;15.432;2022-09-23T03:24:49;101321.72;;;20.94
64296;BMP280;51082;38.236;15.432;2022-09-23T03:25:53;101319.34;;;20.92
64296;BMP280;51082;38.236;15.432;2022-09-23T03:26:58;101318.53;;;20.92
64296;BMP280;51082;38.236;15.432;2022-09-23T03:28:02;101321.13;;;20.87
64296;BMP280;51082;38.236;15.432;2022-09-23T03:29:07;101327.72;;;20.84
64296;BMP280;51082;38.236;15.432;2022-09-23T03:30:13;101323.44;;;20.83
64296;BMP280;51082;38.236;15.432;2022-09-23T03:31:16;101335.88;;;20.83
64296;BMP280;51082;38.236;15.432;2022-09-23T03:32:19;101334.84;;;20.84
64296;BMP280;51082;38.236;15.432;2022-09-23T03:33:25;101332.66;;;20.81
64296;BMP280;51082;38.236;15.432;2022-09-23T03:34:30;101332.66;;;20.81
64296;BMP280;51082;38.236;15.432;2022-09-23T03:35:40;101338.44;;;20.78
64296;BMP280;51082;38.236;15.432;2022-09-23T03:37:02;101340.56;;;20.76
64296;BMP280;51082;38.236;15.432;2022-09-23T03:38:11;101348.25;;;20.77
64296;BMP280;51082;38.236;15.432;2022-09-23T03:39:25;101343.75;;;20.78
64296;BMP280;51082;38.236;15.432;2022-09-23T03:40:31;101353.84;;;20.81
64296;BMP280;51082;38.236;15.432;2022-09-23T03:41:40;101348.38;;;20.87
64296;BMP280;51082;38.236;15.432;2022-09-23T03:42:44;101348.69;;;20.91
64296;BMP280;51082;38.236;15.432;2022-09-23T03:43:49;101345.50;;;20.89
64296;BMP280;51082;38.236;15.432;2022-09-23T03:44:54;101350.78;;;20.89
64296;BMP280;51082;38.236;15.432;2022-09-23T03:45:57;101351.28;;;20.86
64296;BMP280;51082;38.236;15.432;2022-09-23T03:47:00;101345.66;;;20.82
64296;BMP280;51082;38.236;15.432;2022-09-23T03:48:03;101351.19;;;20.81
64296;BMP280;51082;38.236;15.432;2022-09-23T03:49:09;101349.53;;;20.75
64296;BMP280;51082;38.236;15.432;2022-09-23T03:50:14;101351.16;;;20.76
64296;BMP280;51082;38.236;15.432;2022-09-23T03:51:20;101355.06;;;20.73
64296;BMP280;51082;38.236;15.432;2022-09-23T03:52:23;101352.41;;;20.73
64296;BMP280;51082;38.236;15.432;2022-09-23T03:53:27;101355.34;;;20.71
64296;BMP280;51082;38.236;15.432;2022-09-23T03:54:29;101361.09;;;20.68
64296;BMP280;51082;38.236;15.432;2022-09-23T03:55:32;101358.91;;;20.65
64296;BMP280;51082;38.236;15.432;2022-09-23T03:56:34;101360.44;;;20.61
64296;BMP280;51082;38.236;15.432;2022-09-23T03:57:37;101367.84;;;20.59
64296;BMP280;51082;38.236;15.432;2022-09-23T03:58:39;101355.69;;;20.58
64296;BMP280;51082;38.236;15.432;2022-09-23T03:59:42;101360.88;;;20.53
64296;BMP280;51082;38.236;15.432;2022-09-23T04:00:44;101358.25;;;20.53
64296;BMP280;51082;38.236;15.432;2022-09-23T04:01:46;101359.78;;;20.49
64296;BMP280;51082;38.236;15.432;2022-09-23T04:02:48;101362.91;;;20.46
64296;BMP280;51082;38.236;15.432;2022-09-23T04:03:51;101364.97;;;20.44
64296;BMP280;51082;38.236;15.432;2022-09-23T04:04:53;101367.06;;;20.42
64296;BMP280;51082;38.236;15.432;2022-09-23T04:05:57;101362.53;;;20.43
64296;BMP280;51082;38.236;15.432;2022-09-23T04:06:59;101372.59;;;20.41
64296;BMP280;51082;38.236;15.432;2022-09-23T04:08:02;101365.91;;;20.38
64296;BMP280;51082;38.236;15.432;2022-09-23T04:09:05;101369.06;;;20.35
64296;BMP280;51082;38.236;15.432;2022-09-23T04:10:08;101367.38;;;20.29
64296;BMP280;51082;38.236;15.432;2022-09-23T04:11:10;101375.56;;;20.27
64296;BMP280;51082;38.236;15.432;2022-09-23T04:12:14;101373.94;;;20.26
64296;BMP280;51082;38.236;15.432;2022-09-23T04:13:16;101373.84;;;20.21
64296;BMP280;51082;38.236;15.432;2022-09-23T04:14:20;101374.34;;;20.18
64296;BMP280;51082;38.236;15.432;2022-09-23T04:15:21;101379.41;;;20.20
64296;BMP280;51082;38.236;15.432;2022-09-23T04:16:24;101377.00;;;20.18
64296;BMP280;51082;38.236;15.432;2022-09-23T04:17:26;101379.56;;;20.13
64296;BMP280;51082;38.236;15.432;2022-09-23T04:18:28;101378.19;;;20.11
64296;BMP280;51082;38.236;15.432;2022-09-23T04:19:31;101374.88;;;20.03
64296;BMP280;51082;38.236;15.432;2022-09-23T04:20:34;101371.16;;;19.99
64296;BMP280;51082;38.236;15.432;2022-09-23T04:21:35;101374.72;;;19.93
64296;BMP280;51082;38.236;15.432;2022-09-23T04:22:39;101374.63;;;19.88
64296;BMP280;51082;38.236;15.432;2022-09-23T04:23:40;101377.72;;;19.85
64296;BMP280;51082;38.236;15.432;2022-09-23T04:24:45;101382.22;;;19.85
64296;BMP280;51082;38.236;15.432;2022-09-23T04:25:47;101380.06;;;19.82
64296;BMP280;51082;38.236;15.432;2022-09-23T04:26:51;101374.19;;;19.80
64296;BMP280;51082;38.236;15.432;2022-09-23T04:27:53;101386.38;;;19.81
64296;BMP280;51082;38.236;15.432;2022-09-23T04:28:55;101381.59;;;19.78
64296;BMP280;51082;38.236;15.432;2022-09-23T04:29:57;101387.63;;;19.78
64296;BMP280;51082;38.236;15.432;2022-09-23T04:31:02;101388.72;;;19.77
64296;BMP280;51082;38.236;15.432;2022-09-23T04:32:04;101388.13;;;19.75
64296;BMP280;51082;38.236;15.432;2022-09-23T04:33:07;101391.34;;;19.77
64296;BMP280;51082;38.236;15.432;2022-09-23T04:34:08;101385.72;;;19.73
64296;BMP280;51082;38.236;15.432;2022-09-23T04:35:11;101394.44;;;19.74
64296;BMP280;51082;38.236;15.432;2022-09-23T04:36:13;101395.50;;;19.73
64296;BMP280;51082;38.236;15.432;2022-09-23T04:37:15;101385.63;;;19.68
64296;BMP280;51082;38.236;15.432;2022-09-23T04:38:17;101391.94;;;19.67
64296;BMP280;51082;38.236;15.432;2022-09-23T04:39:20;101389.69;;;19.59
64296;BMP280;51082;38.236;15.432;2022-09-23T04:40:23;101397.25;;;19.56
64296;BMP280;51082;38.236;15.432;2022-09-23T04:41:26;101401.16;;;19.53
64296;BMP280;51082;38.236;15.432;2022-09-23T04:42:28;101399.81;;;19.51
64296;BMP280;51082;38.236;15.432;2022-09-23T04:43:31;101406.09;;;19.50
64296;BMP280;51082;38.236;15.432;2022-09-23T04:44:32;101408.66;;;19.45
64296;BMP280;51082;38.236;15.432;2022-09-23T04:45:35;101409.94;;;19.42
64296;BMP280;51082;38.236;15.432;2022-09-23T04:46:37;101406.59;;;19.35
64296;BMP280;51082;38.236;15.432;2022-09-23T04:47:40;101406.41;;;19.36
64296;BMP280;51082;38.236;15.432;2022-09-23T04:48:42;101408.44;;;19.34
64296;BMP280;51082;38.236;15.432;2022-09-23T04:49:45;101413.19;;;19.32
64296;BMP280;51082;38.236;15.432;2022-09-23T04:50:47;101405.25;;;19.32
64296;BMP280;51082;38.236;15.432;2022-09-23T04:51:49;101410.53;;;19.32
64296;BMP280;51082;38.236;15.432;2022-09-23T04:52:51;101409.94;;;19.30
64296;BMP280;51082;38.236;15.432;2022-09-23T04:53:54;101409.41;;;19.28
64296;BMP280;51082;38.236;15.432;2022-09-23T04:54:56;101400.53;;;19.23
64296;BMP280;51082;38.236;15.432;2022-09-23T04:56:03;101404.69;;;19.19
64296;BMP280;51082;38.236;15.432;2022-09-23T04:57:04;101404.38;;;19.15
64296;BMP280;51082;38.236;15.432;2022-09-23T04:58:08;101408.84;;;19.15
64296;BMP280;51082;38.236;15.432;2022-09-23T04:59:10;101399.50;;;19.12
64296;BMP280;51082;38.236;15.432;2022-09-23T05:00:13;101406.28;;;19.08
64296;BMP280;51082;38.236;15.432;2022-09-23T05:01:17;101412.16;;;19.10
64296;BMP280;51082;38.236;15.432;2022-09-23T05:02:20;101412.16;;;19.10
64296;BMP280;51082;38.236;15.432;2022-09-23T05:03:23;101411.78;;;19.06
64296;BMP280;51082;38.236;15.432;2022-09-23T05:04:25;101414.91;;;19.03
64296;BMP280;51082;38.236;15.432;2022-09-23T05:05:28;101415.13;;;19.02
64296;BMP280;51082;38.236;15.432;2022-09-23T05:06:31;101408.28;;;19.01
64296;BMP280;51082;38.236;15.432;2022-09-23T05:07:34;101408.97;;;18.96
64296;BMP280;51082;38.236;15.432;2022-09-23T05:08:36;101419.72;;;18.95
64296;BMP280;51082;38.236;15.432;2022-09-23T05:09:39;101410.53;;;18.97
64296;BMP280;51082;38.236;15.432;2022-09-23T05:10:40;101408.69;;;18.98
64296;BMP280;51082;38.236;15.432;2022-09-23T05:11:45;101403.88;;;18.95
64296;BMP280;51082;38.236;15.432;2022-09-23T05:12:47;101409.66;;;18.92
64296;BMP280;51082;38.236;15.432;2022-09-23T05:13:51;101410.06;;;18.89
64296;BMP280;51082;38.236;15.432;2022-09-23T05:14:54;101410.34;;;18.87
64296;BMP280;51082;38.236;15.432;2022-09-23T05:15:57;101415.25;;;18.84
64296;BMP280;51082;38.236;15.432;2022-09-23T05:17:00;101413.88;;;18.81
64296;BMP280;51082;38.236;15.432;2022-09-23T05:18:03;101410.41;;;18.81
64296;BMP280;51082;38.236;15.432;2022-09-23T05:19:04;101408.59;;;18.81
64296;BMP280;51082;38.236;15.432;2022-09-23T05:20:08;101416.50;;;18.81
64296;BMP280;51082;38.236;15.432;2022-09-23T05:21:12;101409.38;;;18.82
64296;BMP280;51082;38.236;15.432;2022-09-23T05:22:15;101410.19;;;18.82
64296;BMP280;51082;38.236;15.432;2022-09-23T05:23:16;101414.22;;;18.85
64296;BMP280;51082;38.236;15.432;2022-09-23T05:24:19;101410.53;;;18.86
64296;BMP280;51082;38.236;15.432;2022-09-23T05:25:23;101408.38;;;18.83
64296;BMP280;51082;38.236;15.432;2022-09-23T05:26:26;101404.13;;;18.82
64296;BMP280;51082;38.236;15.432;2022-09-23T05:27:30;101412.13;;;18.87
64296;BMP280;51082;38.236;15.432;2022-09-23T05:28:33;101411.03;;;18.83
64296;BMP280;51082;38.236;15.432;2022-09-23T05:29:37;101410.19;;;18.82
64296;BMP280;51082;38.236;15.432;2022-09-23T05:30:40;101417.09;;;18.83
64296;BMP280;51082;38.236;15.432;2022-09-23T05:31:42;101411.69;;;18.90
64296;BMP280;51082;38.236;15.432;2022-09-23T05:32:44;101419.38;;;18.91
64296;BMP280;51082;38.236;15.432;2022-09-23T05:33:47;101418.56;;;18.91
64296;BMP280;51082;38.236;15.432;2022-09-23T05:34:51;101414.09;;;18.91
64296;BMP280;51082;38.236;15.432;2022-09-23T05:35:54;101416.50;;;18.93
64296;BMP280;51082;38.236;15.432;2022-09-23T05:36:57;101410.44;;;18.92
64296;BMP280;51082;38.236;15.432;2022-09-23T05:37:59;101416.03;;;18.96
64296;BMP280;51082;38.236;15.432;2022-09-23T05:39:02;101408.13;;;18.96
64296;BMP280;51082;38.236;15.432;2022-09-23T05:40:04;101413.97;;;18.98
64296;BMP280;51082;38.236;15.432;2022-09-23T05:41:10;101419.25;;;18.98
64296;BMP280;51082;38.236;15.432;2022-09-23T05:42:12;101413.97;;;18.98
64296;BMP280;51082;38.236;15.432;2022-09-23T05:43:16;101412.72;;;19.00
64296;BMP280;51082;38.236;15.432;2022-09-23T05:44:19;101410.91;;;19.01
64296;BMP280;51082;38.236;15.432;2022-09-23T05:45:21;101409.84;;;19.02
64296;BMP280;51082;38.236;15.432;2022-09-23T05:46:25;101414.69;;;19.05
64296;BMP280;51082;38.236;15.432;2022-09-23T05:47:28;101409.41;;;19.05
64296;BMP280;51082;38.236;15.432;2022-09-23T05:48:31;101413.19;;;19.09
64296;BMP280;51082;38.236;15.432;2022-09-23T05:49:32;101408.72;;;19.10
64296;BMP280;51082;38.236;15.432;2022-09-23T05:50:36;101408.03;;;19.14
64296;BMP280;51082;38.236;15.432;2022-09-23T05:51:39;101414.44;;;19.18
64296;BMP280;51082;38.236;15.432;2022-09-23T05:52:40;101407.88;;;19.21
64296;BMP280;51082;38.236;15.432;2022-09-23T05:53:43;101412.47;;;19.25
64296;BMP280;51082;38.236;15.432;2022-09-23T05:54:45;101407.28;;;19.30
64296;BMP280;51082;38.236;15.432;2022-09-23T05:55:48;101411.19;;;19.51
64296;BMP280;51082;38.236;15.432;2022-09-23T05:56:49;101413.91;;;19.68
64296;BMP280;51082;38.236;15.432;2022-09-23T05:57:52;101419.63;;;19.93
64296;BMP280;51082;38.236;15.432;2022-09-23T05:58:57;101416.41;;;20.20
64296;BMP280;51082;38.236;15.432;2022-09-23T06:00:00;101421.41;;;20.33
64296;BMP280;51082;38.236;15.432;2022-09-23T06:01:08;101415.59;;;20.53
64296;BMP280;51082;38.236;15.432;2022-09-23T06:02:11;101415.28;;;20.83
64296;BMP280;51082;38.236;15.432;2022-09-23T06:03:15;101419.41;;;21.12
64296;BMP280;51082;38.236;15.432;2022-09-23T06:04:18;101422.03;;;21.34
64296;BMP280;51082;38.236;15.432;2022-09-23T06:05:20;101415.75;;;21.62
64296;BMP280;51082;38.236;15.432;2022-09-23T06:06:25;101419.59;;;21.76
64296;BMP280;51082;38.236;15.432;2022-09-23T06:07:28;101421.28;;;22.14
64296;BMP280;51082;38.236;15.432;2022-09-23T06:08:32;101415.75;;;22.58